sensor_id;sensor_type;location;lat;lon;timestamp;P1;durP1;ratioP1;P2;durP2;ratioP2
60973;SDS011;46846;51.528;5.076;2024-01-07T00:00:25;621.40;;;589.55;;
60973;SDS011;46846;51.528;5.076;2024-01-07T00:02:51;594.30;;;564.08;;
60973;SDS011;46846;51.528;5.076;2024-01-07T00:05:16;629.28;;;597.00;;
60973;SDS011;46846;51.528;5.076;2024-01-07T00:07:41;584.70;;;555.53;;
60973;SDS011;46846;51.528;5.076;2024-01-07T00:10:07;607.95;;;577.75;;
60973;SDS011;46846;51.528;5.076;2024-01-07T00:12:34;619.40;;;588.38;;
60973;SDS011;46846;51.528;5.076;2024-01-07T00:15:00;632.17;;;599.97;;
60973;SDS011;46846;51.528;5.076;2024-01-07T00:17:26;616.47;;;585.03;;
60973;SDS011;46846;51.528;5.076;2024-01-07T00:19:51;588.45;;;558.88;;
60973;SDS011;46846;51.528;5.076;2024-01-07T00:22:16;591.38;;;561.55;;
60973;SDS011;46846;51.528;5.076;2024-01-07T00:27:08;594.75;;;564.38;;
60973;SDS011;46846;51.528;5.076;2024-01-07T00:29:33;569.88;;;541.10;;
60973;SDS011;46846;51.528;5.076;2024-01-07T00:32:00;612.58;;;581.53;;
60973;SDS011;46846;51.528;5.076;2024-01-07T00:34:26;578.75;;;549.88;;
60973;SDS011;46846;51.528;5.076;2024-01-07T00:36:51;589.08;;;559.85;;
60973;SDS011;46846;51.528;5.076;2024-01-07T00:39:16;603.70;;;572.92;;
60973;SDS011;46846;51.528;5.076;2024-01-07T00:41:42;591.58;;;562.10;;
60973;SDS011;46846;51.528;5.076;2024-01-07T00:44:07;580.30;;;551.45;;
60973;SDS011;46846;51.528;5.076;2024-01-07T00:46:32;623.17;;;592.10;;
60973;SDS011;46846;51.528;5.076;2024-01-07T00:48:58;585.35;;;555.63;;
60973;SDS011;46846;51.528;5.076;2024-01-07T00:51:23;588.90;;;558.90;;
60973;SDS011;46846;51.528;5.076;2024-01-07T00:53:49;610.33;;;580.03;;
60973;SDS011;46846;51.528;5.076;2024-01-07T00:56:14;612.97;;;581.97;;
60973;SDS011;46846;51.528;5.076;2024-01-07T00:58:39;610.92;;;580.20;;
60973;SDS011;46846;51.528;5.076;2024-01-07T01:01:05;598.10;;;568.17;;
60973;SDS011;46846;51.528;5.076;2024-01-07T01:05:56;565.58;;;537.13;;
60973;SDS011;46846;51.528;5.076;2024-01-07T01:08:21;566.83;;;538.53;;
60973;SDS011;46846;51.528;5.076;2024-01-07T01:10:48;579.58;;;550.17;;
60973;SDS011;46846;51.528;5.076;2024-01-07T01:13:13;575.47;;;547.17;;
60973;SDS011;46846;51.528;5.076;2024-01-07T01:15:39;613.40;;;582.97;;
60973;SDS011;46846;51.528;5.076;2024-01-07T01:18:05;586.17;;;556.22;;
60973;SDS011;46846;51.528;5.076;2024-01-07T01:20:30;582.67;;;553.60;;
60973;SDS011;46846;51.528;5.076;2024-01-07T01:22:55;572.05;;;543.58;;
60973;SDS011;46846;51.528;5.076;2024-01-07T01:25:21;574.40;;;545.47;;
60973;SDS011;46846;51.528;5.076;2024-01-07T01:27:46;603.50;;;573.60;;
60973;SDS011;46846;51.528;5.076;2024-01-07T01:30:12;592.88;;;563.15;;
60973;SDS011;46846;51.528;5.076;2024-01-07T01:32:38;606.15;;;575.55;;
60973;SDS011;46846;51.528;5.076;2024-01-07T01:37:30;549.75;;;522.38;;
60973;SDS011;46846;51.528;5.076;2024-01-07T01:39:57;575.22;;;546.28;;
60973;SDS011;46846;51.528;5.076;2024-01-07T01:42:23;600.00;;;570.22;;
60973;SDS011;46846;51.528;5.076;2024-01-07T01:44:48;581.15;;;551.97;;
60973;SDS011;46846;51.528;5.076;2024-01-07T01:47:14;587.90;;;558.63;;
60973;SDS011;46846;51.528;5.076;2024-01-07T01:49:39;584.78;;;555.58;;
60973;SDS011;46846;51.528;5.076;2024-01-07T01:52:05;577.13;;;547.25;;
60973;SDS011;46846;51.528;5.076;2024-01-07T01:54:30;603.15;;;572.42;;
60973;SDS011;46846;51.528;5.076;2024-01-07T01:56:56;614.78;;;583.05;;
60973;SDS011;46846;51.528;5.076;2024-01-07T02:01:48;576.08;;;546.35;;
60973;SDS011;46846;51.528;5.076;2024-01-07T02:04:14;600.88;;;571.20;;
60973;SDS011;46846;51.528;5.076;2024-01-07T02:06:40;573.50;;;544.72;;
60973;SDS011;46846;51.528;5.076;2024-01-07T02:09:06;591.40;;;561.78;;
60973;SDS011;46846;51.528;5.076;2024-01-07T02:11:31;576.78;;;547.25;;
60973;SDS011;46846;51.528;5.076;2024-01-07T02:13:57;606.90;;;575.97;;
60973;SDS011;46846;51.528;5.076;2024-01-07T02:16:22;614.25;;;583.17;;
60973;SDS011;46846;51.528;5.076;2024-01-07T02:18:47;586.28;;;557.00;;
60973;SDS011;46846;51.528;5.076;2024-01-07T02:21:13;587.13;;;558.08;;
60973;SDS011;46846;51.528;5.076;2024-01-07T02:23:39;573.22;;;543.70;;
60973;SDS011;46846;51.528;5.076;2024-01-07T02:26:05;604.70;;;574.75;;
60973;SDS011;46846;51.528;5.076;2024-01-07T02:28:31;563.08;;;533.65;;
60973;SDS011;46846;51.528;5.076;2024-01-07T02:30:57;569.75;;;540.95;;
60973;SDS011;46846;51.528;5.076;2024-01-07T02:33:22;610.10;;;578.75;;
60973;SDS011;46846;51.528;5.076;2024-01-07T02:35:47;565.78;;;537.58;;
60973;SDS011;46846;51.528;5.076;2024-01-07T02:38:13;565.35;;;537.28;;
60973;SDS011;46846;51.528;5.076;2024-01-07T02:40:38;603.22;;;573.25;;
60973;SDS011;46846;51.528;5.076;2024-01-07T02:43:04;568.85;;;540.70;;
60973;SDS011;46846;51.528;5.076;2024-01-07T02:45:29;602.65;;;572.20;;
60973;SDS011;46846;51.528;5.076;2024-01-07T02:47:55;589.63;;;560.42;;
60973;SDS011;46846;51.528;5.076;2024-01-07T02:50:20;566.35;;;538.47;;
60973;SDS011;46846;51.528;5.076;2024-01-07T02:52:45;587.78;;;557.95;;
60973;SDS011;46846;51.528;5.076;2024-01-07T02:55:11;567.40;;;538.22;;
60973;SDS011;46846;51.528;5.076;2024-01-07T02:57:36;598.45;;;568.85;;
60973;SDS011;46846;51.528;5.076;2024-01-07T03:00:02;553.63;;;525.50;;
60973;SDS011;46846;51.528;5.076;2024-01-07T03:02:29;600.53;;;570.70;;
60973;SDS011;46846;51.528;5.076;2024-01-07T03:04:55;592.95;;;562.83;;
60973;SDS011;46846;51.528;5.076;2024-01-07T03:07:20;581.33;;;551.33;;
60973;SDS011;46846;51.528;5.076;2024-01-07T03:09:46;581.42;;;552.40;;
60973;SDS011;46846;51.528;5.076;2024-01-07T03:12:11;591.08;;;560.25;;
60973;SDS011;46846;51.528;5.076;2024-01-07T03:14:36;573.95;;;545.03;;
60973;SDS011;46846;51.528;5.076;2024-01-07T03:17:02;584.63;;;555.20;;
60973;SDS011;46846;51.528;5.076;2024-01-07T03:19:27;588.97;;;557.92;;
60973;SDS011;46846;51.528;5.076;2024-01-07T03:21:52;567.72;;;539.22;;
60973;SDS011;46846;51.528;5.076;2024-01-07T03:24:18;608.50;;;578.00;;
60973;SDS011;46846;51.528;5.076;2024-01-07T03:26:43;579.00;;;549.67;;
60973;SDS011;46846;51.528;5.076;2024-01-07T03:29:08;605.13;;;575.22;;
60973;SDS011;46846;51.528;5.076;2024-01-07T03:31:34;606.38;;;576.03;;
60973;SDS011;46846;51.528;5.076;2024-01-07T03:33:59;610.60;;;580.17;;
60973;SDS011;46846;51.528;5.076;2024-01-07T03:36:25;597.80;;;568.15;;
60973;SDS011;46846;51.528;5.076;2024-01-07T03:38:50;607.70;;;577.40;;
60973;SDS011;46846;51.528;5.076;2024-01-07T03:41:16;567.50;;;538.25;;
60973;SDS011;46846;51.528;5.076;2024-01-07T03:43:45;568.38;;;540.45;;
60973;SDS011;46846;51.528;5.076;2024-01-07T03:46:12;568.25;;;539.45;;
60973;SDS011;46846;51.528;5.076;2024-01-07T03:48:38;595.50;;;565.45;;
60973;SDS011;46846;51.528;5.076;2024-01-07T03:51:03;572.70;;;543.38;;
60973;SDS011;46846;51.528;5.076;2024-01-07T03:53:29;572.75;;;544.28;;
60973;SDS011;46846;51.528;5.076;2024-01-07T03:55:54;565.97;;;537.22;;
60973;SDS011;46846;51.528;5.076;2024-01-07T03:58:19;556.92;;;529.47;;
60973;SDS011;46846;51.528;5.076;2024-01-07T04:00:45;582.85;;;553.53;;
60973;SDS011;46846;51.528;5.076;2024-01-07T04:03:10;590.90;;;561.40;;
60973;SDS011;46846;51.528;5.076;2024-01-07T04:05:36;569.38;;;540.65;;
60973;SDS011;46846;51.528;5.076;2024-01-07T04:08:02;573.35;;;543.78;;
60973;SDS011;46846;51.528;5.076;2024-01-07T04:10:28;612.85;;;580.58;;
60973;SDS011;46846;51.528;5.076;2024-01-07T04:12:54;577.03;;;548.13;;
60973;SDS011;46846;51.528;5.076;2024-01-07T04:15:19;607.17;;;577.28;;
60973;SDS011;46846;51.528;5.076;2024-01-07T04:17:45;566.67;;;537.55;;
60973;SDS011;46846;51.528;5.076;2024-01-07T04:20:12;601.00;;;570.42;;
60973;SDS011;46846;51.528;5.076;2024-01-07T04:22:38;564.30;;;535.00;;
60973;SDS011;46846;51.528;5.076;2024-01-07T04:25:04;574.17;;;545.13;;
60973;SDS011;46846;51.528;5.076;2024-01-07T04:27:33;569.58;;;540.38;;
60973;SDS011;46846;51.528;5.076;2024-01-07T04:29:59;606.47;;;574.60;;
60973;SDS011;46846;51.528;5.076;2024-01-07T04:32:25;608.58;;;578.28;;
60973;SDS011;46846;51.528;5.076;2024-01-07T04:34:50;602.15;;;571.25;;
60973;SDS011;46846;51.528;5.076;2024-01-07T04:37:16;606.53;;;576.35;;
60973;SDS011;46846;51.528;5.076;2024-01-07T04:39:41;594.92;;;565.22;;
60973;SDS011;46846;51.528;5.076;2024-01-07T04:42:06;576.38;;;546.15;;
60973;SDS011;46846;51.528;5.076;2024-01-07T04:44:32;580.22;;;551.58;;
60973;SDS011;46846;51.528;5.076;2024-01-07T04:46:57;601.92;;;571.17;;
60973;SDS011;46846;51.528;5.076;2024-01-07T04:49:22;587.55;;;558.58;;
60973;SDS011;46846;51.528;5.076;2024-01-07T04:51:48;559.60;;;531.43;;
60973;SDS011;46846;51.528;5.076;2024-01-07T04:54:13;595.78;;;565.53;;
60973;SDS011;46846;51.528;5.076;2024-01-07T04:56:39;594.40;;;564.38;;
60973;SDS011;46846;51.528;5.076;2024-01-07T04:59:04;556.38;;;527.78;;
60973;SDS011;46846;51.528;5.076;2024-01-07T05:01:32;601.67;;;570.53;;
60973;SDS011;46846;51.528;5.076;2024-01-07T05:03:58;568.22;;;539.17;;
60973;SDS011;46846;51.528;5.076;2024-01-07T05:06:23;559.50;;;530.78;;
60973;SDS011;46846;51.528;5.076;2024-01-07T05:08:48;600.70;;;569.97;;
60973;SDS011;46846;51.528;5.076;2024-01-07T05:11:14;599.38;;;569.47;;
60973;SDS011;46846;51.528;5.076;2024-01-07T05:13:39;560.42;;;532.53;;
60973;SDS011;46846;51.528;5.076;2024-01-07T05:16:05;564.28;;;536.58;;
60973;SDS011;46846;51.528;5.076;2024-01-07T05:18:30;567.90;;;539.05;;
60973;SDS011;46846;51.528;5.076;2024-01-07T05:20:56;563.72;;;533.35;;
60973;SDS011;46846;51.528;5.076;2024-01-07T05:23:21;608.13;;;577.13;;
60973;SDS011;46846;51.528;5.076;2024-01-07T05:25:46;561.33;;;533.15;;
60973;SDS011;46846;51.528;5.076;2024-01-07T05:28:12;561.28;;;531.55;;
60973;SDS011;46846;51.528;5.076;2024-01-07T05:30:38;552.28;;;524.17;;
60973;SDS011;46846;51.528;5.076;2024-01-07T05:33:06;581.65;;;552.60;;
60973;SDS011;46846;51.528;5.076;2024-01-07T05:35:31;560.90;;;532.10;;
60973;SDS011;46846;51.528;5.076;2024-01-07T05:37:57;589.90;;;559.10;;
60973;SDS011;46846;51.528;5.076;2024-01-07T05:40:22;585.20;;;555.58;;
60973;SDS011;46846;51.528;5.076;2024-01-07T05:42:48;554.55;;;525.40;;
60973;SDS011;46846;51.528;5.076;2024-01-07T05:45:13;552.13;;;523.30;;
60973;SDS011;46846;51.528;5.076;2024-01-07T05:47:39;592.95;;;561.88;;
60973;SDS011;46846;51.528;5.076;2024-01-07T05:50:06;601.22;;;571.38;;
60973;SDS011;46846;51.528;5.076;2024-01-07T05:54:57;574.15;;;545.63;;
60973;SDS011;46846;51.528;5.076;2024-01-07T05:57:22;579.35;;;548.95;;
60973;SDS011;46846;51.528;5.076;2024-01-07T05:59:48;574.22;;;545.28;;
60973;SDS011;46846;51.528;5.076;2024-01-07T06:02:15;591.75;;;561.50;;
60973;SDS011;46846;51.528;5.076;2024-01-07T06:04:42;546.08;;;518.92;;
60973;SDS011;46846;51.528;5.076;2024-01-07T06:07:07;557.97;;;529.83;;
60973;SDS011;46846;51.528;5.076;2024-01-07T06:09:33;557.95;;;529.80;;
60973;SDS011;46846;51.528;5.076;2024-01-07T06:11:59;559.28;;;530.83;;
60973;SDS011;46846;51.528;5.076;2024-01-07T06:14:24;547.30;;;519.45;;
60973;SDS011;46846;51.528;5.076;2024-01-07T06:16:50;538.65;;;511.63;;
60973;SDS011;46846;51.528;5.076;2024-01-07T06:19:16;566.92;;;538.72;;
60973;SDS011;46846;51.528;5.076;2024-01-07T06:21:42;572.30;;;543.72;;
60973;SDS011;46846;51.528;5.076;2024-01-07T06:24:07;548.42;;;521.05;;
60973;SDS011;46846;51.528;5.076;2024-01-07T06:26:33;545.10;;;517.47;;
60973;SDS011;46846;51.528;5.076;2024-01-07T06:28:59;548.88;;;521.38;;
60973;SDS011;46846;51.528;5.076;2024-01-07T06:31:24;586.15;;;556.78;;
60973;SDS011;46846;51.528;5.076;2024-01-07T06:33:50;558.75;;;530.80;;
60973;SDS011;46846;51.528;5.076;2024-01-07T06:36:16;589.70;;;560.30;;
60973;SDS011;46846;51.528;5.076;2024-01-07T06:38:41;551.30;;;524.10;;
60973;SDS011;46846;51.528;5.076;2024-01-07T06:41:07;573.25;;;544.42;;
60973;SDS011;46846;51.528;5.076;2024-01-07T06:43:32;541.90;;;514.25;;
60973;SDS011;46846;51.528;5.076;2024-01-07T06:45:57;577.45;;;548.58;;
60973;SDS011;46846;51.528;5.076;2024-01-07T06:48:23;548.72;;;520.97;;
60973;SDS011;46846;51.528;5.076;2024-01-07T06:50:48;571.83;;;543.30;;
60973;SDS011;46846;51.528;5.076;2024-01-07T06:53:13;553.25;;;525.35;;
60973;SDS011;46846;51.528;5.076;2024-01-07T06:55:39;568.33;;;540.03;;
60973;SDS011;46846;51.528;5.076;2024-01-07T06:58:04;537.42;;;510.52;;
60973;SDS011;46846;51.528;5.076;2024-01-07T07:00:30;569.83;;;540.83;;
60973;SDS011;46846;51.528;5.076;2024-01-07T07:02:55;583.65;;;554.25;;
60973;SDS011;46846;51.528;5.076;2024-01-07T07:05:21;548.83;;;520.42;;
60973;SDS011;46846;51.528;5.076;2024-01-07T07:07:46;588.05;;;558.05;;
60973;SDS011;46846;51.528;5.076;2024-01-07T07:10:11;568.75;;;540.33;;
60973;SDS011;46846;51.528;5.076;2024-01-07T07:12:37;571.85;;;543.65;;
60973;SDS011;46846;51.528;5.076;2024-01-07T07:15:02;578.33;;;549.25;;
60973;SDS011;46846;51.528;5.076;2024-01-07T07:17:28;561.63;;;533.85;;
60973;SDS011;46846;51.528;5.076;2024-01-07T07:19:53;571.83;;;543.35;;
60973;SDS011;46846;51.528;5.076;2024-01-07T07:22:19;534.67;;;508.02;;
60973;SDS011;46846;51.528;5.076;2024-01-07T07:24:44;577.80;;;549.08;;
60973;SDS011;46846;51.528;5.076;2024-01-07T07:27:09;550.95;;;523.08;;
60973;SDS011;46846;51.528;5.076;2024-01-07T07:29:35;546.90;;;519.30;;
60973;SDS011;46846;51.528;5.076;2024-01-07T07:32:00;533.93;;;506.57;;
60973;SDS011;46846;51.528;5.076;2024-01-07T07:34:25;578.92;;;548.72;;
60973;SDS011;46846;51.528;5.076;2024-01-07T07:36:51;552.78;;;524.65;;
60973;SDS011;46846;51.528;5.076;2024-01-07T07:39:16;550.80;;;520.88;;
60973;SDS011;46846;51.528;5.076;2024-01-07T07:41:42;547.22;;;519.50;;
60973;SDS011;46846;51.528;5.076;2024-01-07T07:44:07;542.90;;;514.58;;
60973;SDS011;46846;51.528;5.076;2024-01-07T07:46:33;585.17;;;554.95;;
60973;SDS011;46846;51.528;5.076;2024-01-07T07:48:58;576.80;;;547.85;;
60973;SDS011;46846;51.528;5.076;2024-01-07T07:51:23;584.00;;;554.13;;
60973;SDS011;46846;51.528;5.076;2024-01-07T07:53:49;529.70;;;503.55;;
60973;SDS011;46846;51.528;5.076;2024-01-07T07:56:14;534.45;;;507.15;;
60973;SDS011;46846;51.528;5.076;2024-01-07T07:58:40;534.10;;;507.42;;
60973;SDS011;46846;51.528;5.076;2024-01-07T08:01:05;527.58;;;501.25;;
60973;SDS011;46846;51.528;5.076;2024-01-07T08:03:31;558.92;;;530.72;;
60973;SDS011;46846;51.528;5.076;2024-01-07T08:05:57;544.22;;;517.20;;
60973;SDS011;46846;51.528;5.076;2024-01-07T08:08:22;571.90;;;542.83;;
60973;SDS011;46846;51.528;5.076;2024-01-07T08:10:47;534.85;;;506.95;;
60973;SDS011;46846;51.528;5.076;2024-01-07T08:13:13;531.08;;;504.67;;
60973;SDS011;46846;51.528;5.076;2024-01-07T08:15:38;524.70;;;498.58;;
60973;SDS011;46846;51.528;5.076;2024-01-07T08:18:04;569.58;;;540.50;;
60973;SDS011;46846;51.528;5.076;2024-01-07T08:20:30;544.97;;;517.92;;
60973;SDS011;46846;51.528;5.076;2024-01-07T08:22:55;522.83;;;496.80;;
60973;SDS011;46846;51.528;5.076;2024-01-07T08:25:21;531.85;;;505.02;;
60973;SDS011;46846;51.528;5.076;2024-01-07T08:27:47;564.95;;;536.65;;
60973;SDS011;46846;51.528;5.076;2024-01-07T08:30:13;570.72;;;541.60;;
60973;SDS011;46846;51.528;5.076;2024-01-07T08:32:39;536.95;;;509.75;;
60973;SDS011;46846;51.528;5.076;2024-01-07T08:35:05;562.42;;;534.13;;
60973;SDS011;46846;51.528;5.076;2024-01-07T08:37:32;576.72;;;548.10;;
60973;SDS011;46846;51.528;5.076;2024-01-07T08:39:58;530.58;;;503.98;;
60973;SDS011;46846;51.528;5.076;2024-01-07T08:42:24;530.83;;;504.08;;
60973;SDS011;46846;51.528;5.076;2024-01-07T08:44:49;565.95;;;537.28;;
60973;SDS011;46846;51.528;5.076;2024-01-07T08:47:15;519.42;;;492.77;;
60973;SDS011;46846;51.528;5.076;2024-01-07T08:49:40;551.30;;;523.70;;
60973;SDS011;46846;51.528;5.076;2024-01-07T08:52:05;530.22;;;503.40;;
60973;SDS011;46846;51.528;5.076;2024-01-07T08:54:31;525.45;;;499.13;;
60973;SDS011;46846;51.528;5.076;2024-01-07T08:56:58;529.55;;;501.83;;
60973;SDS011;46846;51.528;5.076;2024-01-07T08:59:23;570.10;;;541.63;;
60973;SDS011;46846;51.528;5.076;2024-01-07T09:01:49;534.63;;;508.05;;
60973;SDS011;46846;51.528;5.076;2024-01-07T09:04:14;560.90;;;532.88;;
60973;SDS011;46846;51.528;5.076;2024-01-07T09:06:42;531.28;;;504.25;;
60973;SDS011;46846;51.528;5.076;2024-01-07T09:09:07;527.90;;;501.30;;
60973;SDS011;46846;51.528;5.076;2024-01-07T09:11:33;533.28;;;506.38;;
60973;SDS011;46846;51.528;5.076;2024-01-07T09:13:59;566.95;;;537.95;;
60973;SDS011;46846;51.528;5.076;2024-01-07T09:16:25;570.15;;;541.65;;
60973;SDS011;46846;51.528;5.076;2024-01-07T09:18:50;550.50;;;523.20;;
60973;SDS011;46846;51.528;5.076;2024-01-07T09:21:16;557.58;;;529.83;;
60973;SDS011;46846;51.528;5.076;2024-01-07T09:23:41;515.65;;;489.63;;
60973;SDS011;46846;51.528;5.076;2024-01-07T09:26:08;535.13;;;508.45;;
60973;SDS011;46846;51.528;5.076;2024-01-07T09:28:33;540.92;;;513.55;;
60973;SDS011;46846;51.528;5.076;2024-01-07T09:30:59;540.25;;;513.10;;
60973;SDS011;46846;51.528;5.076;2024-01-07T09:33:24;529.08;;;502.30;;
60973;SDS011;46846;51.528;5.076;2024-01-07T09:35:50;560.92;;;532.67;;
60973;SDS011;46846;51.528;5.076;2024-01-07T09:38:15;563.08;;;534.67;;
60973;SDS011;46846;51.528;5.076;2024-01-07T09:40:41;561.97;;;534.17;;
60973;SDS011;46846;51.528;5.076;2024-01-07T09:43:07;564.70;;;536.55;;
60973;SDS011;46846;51.528;5.076;2024-01-07T09:45:33;514.85;;;489.00;;
60973;SDS011;46846;51.528;5.076;2024-01-07T09:48:01;516.75;;;490.73;;
60973;SDS011;46846;51.528;5.076;2024-01-07T09:50:27;556.53;;;528.63;;
60973;SDS011;46846;51.528;5.076;2024-01-07T09:52:52;530.95;;;504.17;;
60973;SDS011;46846;51.528;5.076;2024-01-07T09:55:26;529.63;;;502.55;;
60973;SDS011;46846;51.528;5.076;2024-01-07T09:57:55;516.83;;;490.50;;
60973;SDS011;46846;51.528;5.076;2024-01-07T10:00:20;519.88;;;493.88;;
60973;SDS011;46846;51.528;5.076;2024-01-07T10:02:46;523.25;;;496.92;;
60973;SDS011;46846;51.528;5.076;2024-01-07T10:05:11;549.80;;;522.20;;
60973;SDS011;46846;51.528;5.076;2024-01-07T10:07:37;518.83;;;492.98;;
60973;SDS011;46846;51.528;5.076;2024-01-07T10:12:43;486.50;;;461.67;;
60973;SDS011;46846;51.528;5.076;2024-01-07T10:15:10;518.00;;;491.27;;
60973;SDS011;46846;51.528;5.076;2024-01-07T10:17:35;509.63;;;483.92;;
60973;SDS011;46846;51.528;5.076;2024-01-07T10:20:01;504.05;;;478.35;;
60973;SDS011;46846;51.528;5.076;2024-01-07T10:22:26;522.05;;;496.17;;
60973;SDS011;46846;51.528;5.076;2024-01-07T10:24:52;507.88;;;482.23;;
60973;SDS011;46846;51.528;5.076;2024-01-07T10:27:17;542.78;;;515.97;;
60973;SDS011;46846;51.528;5.076;2024-01-07T10:29:43;558.65;;;530.88;;
60973;SDS011;46846;51.528;5.076;2024-01-07T10:32:09;547.30;;;520.28;;
60973;SDS011;46846;51.528;5.076;2024-01-07T10:34:35;546.60;;;518.92;;
60973;SDS011;46846;51.528;5.076;2024-01-07T10:39:27;489.95;;;465.42;;
60973;SDS011;46846;51.528;5.076;2024-01-07T10:41:54;541.00;;;514.28;;
60973;SDS011;46846;51.528;5.076;2024-01-07T10:44:24;507.05;;;481.80;;
60973;SDS011;46846;51.528;5.076;2024-01-07T10:46:55;510.38;;;484.60;;
60973;SDS011;46846;51.528;5.076;2024-01-07T10:51:56;526.45;;;500.00;;
60973;SDS011;46846;51.528;5.076;2024-01-07T10:54:34;515.50;;;489.85;;
60973;SDS011;46846;51.528;5.076;2024-01-07T10:57:24;500.77;;;475.63;;
60973;SDS011;46846;51.528;5.076;2024-01-07T10:59:52;492.35;;;467.73;;
60973;SDS011;46846;51.528;5.076;2024-01-07T11:02:19;519.67;;;493.95;;
60973;SDS011;46846;51.528;5.076;2024-01-07T11:05:02;506.42;;;481.17;;
60973;SDS011;46846;51.528;5.076;2024-01-07T11:07:40;510.45;;;485.05;;
60973;SDS011;46846;51.528;5.076;2024-01-07T11:10:12;545.90;;;518.65;;
60973;SDS011;46846;51.528;5.076;2024-01-07T11:12:42;500.67;;;475.48;;
60973;SDS011;46846;51.528;5.076;2024-01-07T11:15:08;505.45;;;480.08;;
60973;SDS011;46846;51.528;5.076;2024-01-07T11:20:05;523.70;;;497.80;;
60973;SDS011;46846;51.528;5.076;2024-01-07T11:22:33;498.92;;;473.77;;
60973;SDS011;46846;51.528;5.076;2024-01-07T11:24:59;513.33;;;487.27;;
60973;SDS011;46846;51.528;5.076;2024-01-07T11:27:27;516.90;;;491.35;;
60973;SDS011;46846;51.528;5.076;2024-01-07T11:29:56;493.98;;;468.63;;
60973;SDS011;46846;51.528;5.076;2024-01-07T11:32:35;514.30;;;488.75;;
60973;SDS011;46846;51.528;5.076;2024-01-07T11:35:00;513.88;;;488.40;;
60973;SDS011;46846;51.528;5.076;2024-01-07T11:37:27;483.00;;;458.33;;
60973;SDS011;46846;51.528;5.076;2024-01-07T11:39:56;512.92;;;487.08;;
60973;SDS011;46846;51.528;5.076;2024-01-07T11:42:25;520.20;;;493.85;;
60973;SDS011;46846;51.528;5.076;2024-01-07T11:44:54;525.05;;;498.65;;
60973;SDS011;46846;51.528;5.076;2024-01-07T11:47:20;525.17;;;499.02;;
60973;SDS011;46846;51.528;5.076;2024-01-07T11:49:47;484.20;;;459.80;;
60973;SDS011;46846;51.528;5.076;2024-01-07T11:52:14;524.25;;;498.23;;
60973;SDS011;46846;51.528;5.076;2024-01-07T11:57:06;464.70;;;440.33;;
60973;SDS011;46846;51.528;5.076;2024-01-07T11:59:32;458.58;;;435.35;;
60973;SDS011;46846;51.528;5.076;2024-01-07T12:02:02;467.77;;;444.33;;
60973;SDS011;46846;51.528;5.076;2024-01-07T12:04:29;504.40;;;479.20;;
60973;SDS011;46846;51.528;5.076;2024-01-07T12:06:58;500.50;;;474.88;;
60973;SDS011;46846;51.528;5.076;2024-01-07T12:09:24;473.25;;;449.10;;
60973;SDS011;46846;51.528;5.076;2024-01-07T12:11:50;481.35;;;457.27;;
60973;SDS011;46846;51.528;5.076;2024-01-07T12:16:42;469.45;;;445.95;;
60973;SDS011;46846;51.528;5.076;2024-01-07T12:19:10;496.95;;;471.83;;
60973;SDS011;46846;51.528;5.076;2024-01-07T12:21:36;475.33;;;451.33;;
60973;SDS011;46846;51.528;5.076;2024-01-07T12:24:03;472.33;;;448.25;;
60973;SDS011;46846;51.528;5.076;2024-01-07T12:26:29;490.58;;;465.90;;
60973;SDS011;46846;51.528;5.076;2024-01-07T12:31:22;450.15;;;427.38;;
60973;SDS011;46846;51.528;5.076;2024-01-07T12:33:48;478.67;;;454.67;;
60973;SDS011;46846;51.528;5.076;2024-01-07T12:36:13;512.22;;;486.23;;
60973;SDS011;46846;51.528;5.076;2024-01-07T12:38:40;462.42;;;438.88;;
60973;SDS011;46846;51.528;5.076;2024-01-07T12:41:06;488.50;;;463.75;;
60973;SDS011;46846;51.528;5.076;2024-01-07T12:43:32;480.13;;;455.98;;
60973;SDS011;46846;51.528;5.076;2024-01-07T12:45:57;485.65;;;461.00;;
60973;SDS011;46846;51.528;5.076;2024-01-07T12:48:29;485.02;;;460.50;;
60973;SDS011;46846;51.528;5.076;2024-01-07T12:50:54;518.33;;;492.25;;
60973;SDS011;46846;51.528;5.076;2024-01-07T12:53:20;530.60;;;502.63;;
60973;SDS011;46846;51.528;5.076;2024-01-07T12:55:45;495.58;;;470.30;;
60973;SDS011;46846;51.528;5.076;2024-01-07T12:58:10;506.77;;;481.58;;
60973;SDS011;46846;51.528;5.076;2024-01-07T13:00:36;481.10;;;456.48;;
60973;SDS011;46846;51.528;5.076;2024-01-07T13:03:01;520.60;;;494.48;;
60973;SDS011;46846;51.528;5.076;2024-01-07T13:05:29;485.00;;;460.67;;
60973;SDS011;46846;51.528;5.076;2024-01-07T13:07:54;486.92;;;462.30;;
60973;SDS011;46846;51.528;5.076;2024-01-07T13:10:20;477.93;;;453.73;;
60973;SDS011;46846;51.528;5.076;2024-01-07T13:12:45;487.15;;;462.50;;
60973;SDS011;46846;51.528;5.076;2024-01-07T13:15:11;513.63;;;488.02;;
60973;SDS011;46846;51.528;5.076;2024-01-07T13:17:37;523.97;;;497.50;;
60973;SDS011;46846;51.528;5.076;2024-01-07T13:20:03;518.53;;;491.85;;
60973;SDS011;46846;51.528;5.076;2024-01-07T13:22:31;487.15;;;462.67;;
60973;SDS011;46846;51.528;5.076;2024-01-07T13:24:57;519.15;;;493.38;;
60973;SDS011;46846;51.528;5.076;2024-01-07T13:27:22;490.48;;;465.95;;
60973;SDS011;46846;51.528;5.076;2024-01-07T13:32:13;470.08;;;446.27;;
60973;SDS011;46846;51.528;5.076;2024-01-07T13:34:43;478.45;;;454.65;;
60973;SDS011;46846;51.528;5.076;2024-01-07T13:37:09;513.95;;;488.17;;
60973;SDS011;46846;51.528;5.076;2024-01-07T13:39:35;523.20;;;497.02;;
60973;SDS011;46846;51.528;5.076;2024-01-07T13:42:01;489.15;;;464.42;;
60973;SDS011;46846;51.528;5.076;2024-01-07T13:44:26;480.20;;;456.23;;
60973;SDS011;46846;51.528;5.076;2024-01-07T13:46:52;485.15;;;460.95;;
60973;SDS011;46846;51.528;5.076;2024-01-07T13:49:17;481.88;;;457.88;;
60973;SDS011;46846;51.528;5.076;2024-01-07T13:51:43;478.15;;;454.23;;
60973;SDS011;46846;51.528;5.076;2024-01-07T13:54:09;478.75;;;454.52;;
60973;SDS011;46846;51.528;5.076;2024-01-07T13:56:38;480.55;;;456.55;;
60973;SDS011;46846;51.528;5.076;2024-01-07T13:59:07;524.65;;;498.55;;
60973;SDS011;46846;51.528;5.076;2024-01-07T14:03:58;477.98;;;453.63;;
60973;SDS011;46846;51.528;5.076;2024-01-07T14:06:23;498.40;;;473.42;;
60973;SDS011;46846;51.528;5.076;2024-01-07T14:08:49;470.30;;;446.70;;
60973;SDS011;46846;51.528;5.076;2024-01-07T14:11:14;504.77;;;479.58;;
60973;SDS011;46846;51.528;5.076;2024-01-07T14:13:39;501.35;;;476.15;;
60973;SDS011;46846;51.528;5.076;2024-01-07T14:16:05;488.20;;;463.73;;
60973;SDS011;46846;51.528;5.076;2024-01-07T14:18:31;505.27;;;480.02;;
60973;SDS011;46846;51.528;5.076;2024-01-07T14:20:56;472.23;;;448.70;;
60973;SDS011;46846;51.528;5.076;2024-01-07T14:23:22;454.13;;;431.38;;